Time;durP1;ratioP1;P1;durP2;ratioP2;P2;SDS_P1;SDS_P2;PMS_P1;PMS_P2;Temp;Humidity;BMP_temperature;BMP_pressure;BME280_temperature;BME280_humidity;BME280_pressure;Samples;Min_cycle;Max_cycle;Signal;HPM_P1;HPM_P2
2022/12/02 00:01:06;;;;;;;6.53;3.60;;;;;;;1.85;76.56;100202.84;5012597;28;20041;-69
2022/12/02 00:03:36;;;;;;;1.95;1.85;;;;;;;1.81;76.75;100201.00;5015778;28;20496;-70
2022/12/02 00:06:11;;;;;;;7.22;6.07;;;;;;;1.77;76.14;100196.66;4964398;28;20055;-70
2022/12/02 00:08:39;;;;;;;4.00;3.00;;;;;;;1.79;76.14;100202.59;5007313;28;20042;-70
2022/12/02 00:11:26;;;;;;;4.35;3.78;;;;;;;1.77;76.68;100204.19;5016937;28;20495;-69
2022/12/02 00:13:57;;;;;;;1.83;1.73;;;;;;;1.72;76.17;100195.59;5016113;28;20136;-69
2022/12/02 00:16:27;;;;;;;2.92;2.72;;;;;;;1.72;77.08;100190.56;5015635;28;20399;-70
2022/12/02 00:18:57;;;;;;;3.50;3.20;;;;;;;1.79;76.75;100200.94;5015660;28;20042;-70
2022/12/02 00:21:26;;;;;;;0.70;0.70;;;;;;;1.78;77.01;100200.88;5012367;28;20491;-70
2022/12/02 00:23:54;;;;;;;4.13;3.30;;;;;;;1.77;76.93;100204.19;5015304;28;20508;-69
2022/12/02 00:26:23;;;;;;;3.13;2.63;;;;;;;1.76;77.01;100193.25;5016283;28;20526;-70
2022/12/02 00:28:52;;;;;;;5.20;3.87;;;;;;;1.76;76.78;100202.47;5016640;28;20443;-69
2022/12/02 00:31:22;;;;;;;1.73;1.63;;;;;;;1.76;76.75;100192.41;5015126;28;20567;-69
2022/12/02 00:33:52;;;;;;;4.27;3.87;;;;;;;1.78;76.79;100195.84;5014901;28;20058;-69
2022/12/02 00:36:21;;;;;;;4.57;4.20;;;;;;;1.76;77.10;100194.91;5016758;28;20099;-69
2022/12/02 00:38:49;;;;;;;5.43;4.40;;;;;;;1.76;77.43;100192.41;4997524;28;20040;-69
2022/12/02 00:41:18;;;;;;;4.10;3.20;;;;;;;1.76;77.24;100192.41;5014314;28;20041;-69
2022/12/02 00:46:32;;;;;;;;;;;;;;;1.76;77.47;100197.44;5014798;28;20128;-70
2022/12/02 00:49:05;;;;;;;6.72;4.28;;;;;;;1.69;77.30;100190.41;5014052;28;19955;-71
2022/12/02 00:51:34;;;;;;;2.47;2.28;;;;;;;1.67;77.05;100192.03;5015523;28;20050;-69
2022/12/02 00:54:04;;;;;;;2.47;2.30;;;;;;;1.64;77.66;100191.88;5015045;28;20045;-69
2022/12/02 00:56:33;;;;;;;1.95;1.85;;;;;;;1.55;76.85;100177.28;4998567;28;20130;-70
2022/12/02 00:59:02;;;;;;;4.25;3.45;;;;;;;1.62;77.61;100180.91;5015338;28;20065;-71
2022/12/02 01:01:31;;;;;;;11.05;6.15;;;;;;;1.59;77.42;100183.28;4996652;28;20042;-69
2022/12/02 01:04:00;;;;;;;3.25;2.67;;;;;;;1.55;76.75;100178.91;5015573;28;20424;-69
2022/12/02 01:06:30;;;;;;;5.82;4.43;;;;;;;1.56;77.61;100183.16;5015866;28;20045;-69
2022/12/02 01:08:58;;;;;;;1.42;1.33;;;;;;;1.52;77.62;100182.16;5014483;28;20485;-70
2022/12/02 01:11:27;;;;;;;5.70;4.93;;;;;;;1.53;77.46;100181.38;5015553;28;20038;-69
2022/12/02 01:13:55;;;;;;;2.55;2.35;;;;;;;1.53;77.62;100178.00;5010049;28;20046;-70
2022/12/02 01:16:24;;;;;;;2.67;2.47;;;;;;;1.52;76.96;100189.72;4996033;28;20399;-70
2022/12/02 01:18:53;;;;;;;1.48;1.38;;;;;;;1.50;76.79;100187.91;5013979;28;20046;-69
2022/12/02 01:21:22;;;;;;;3.17;2.95;;;;;;;1.46;77.88;100176.88;4997606;28;20044;-69
2022/12/02 01:23:52;;;;;;;4.32;3.08;;;;;;;1.50;77.00;100192.94;4996585;28;20057;-69
2022/12/02 01:26:21;;;;;;;1.58;1.48;;;;;;;1.44;77.24;100182.63;4998468;28;20400;-70
2022/12/02 01:28:50;;;;;;;2.70;2.50;;;;;;;1.53;77.25;100183.03;5015433;28;20034;-69
2022/12/02 01:31:18;;;;;;;1.73;1.63;;;;;;;1.41;76.86;100169.94;5012465;28;20042;-69
2022/12/02 01:33:47;;;;;;;6.35;3.08;;;;;;;1.47;77.08;100183.63;5013935;28;20077;-69
2022/12/02 01:36:16;;;;;;;0.80;0.80;;;;;;;1.45;77.38;100189.38;5015309;28;20034;-69
2022/12/02 01:38:45;;;;;;;2.93;2.47;;;;;;;1.44;77.28;100182.63;5015367;28;20403;-69
2022/12/02 01:41:15;;;;;;;4.13;3.78;;;;;;;1.44;77.45;100182.63;5013948;28;20045;-69
2022/12/02 01:43:43;;;;;;;1.17;1.17;;;;;;;1.41;76.84;100182.50;5013157;28;20081;-69
2022/12/02 01:46:14;;;;;;;2.13;2.00;;;;;;;1.42;76.96;100186.75;5011571;28;20053;-69
2022/12/02 01:48:43;;;;;;;2.92;2.53;;;;;;;1.36;76.92;100184.81;5014943;28;20402;-70
2022/12/02 01:51:12;;;;;;;1.63;1.53;;;;;;;1.36;77.05;100184.81;5013794;28;20042;-69
2022/12/02 01:53:41;;;;;;;1.13;1.13;;;;;;;1.35;76.96;100183.09;5015319;28;20069;-70
2022/12/02 01:56:11;;;;;;;4.10;3.72;;;;;;;1.26;77.22;100176.00;5012618;28;20042;-70
2022/12/02 01:58:41;;;;;;;4.45;4.15;;;;;;;1.30;77.43;100185.41;4996978;28;20161;-70
2022/12/02 02:01:28;;;;;;;2.80;2.38;;;;;;;1.29;76.78;100177.81;4991357;28;20105;-70
2022/12/02 02:03:57;;;;;;;7.57;2.70;;;;;;;1.22;77.20;100166.59;5010728;28;20053;-69
2022/12/02 02:06:29;;;;;;;3.10;2.80;;;;;;;1.30;77.79;100175.34;5014822;28;20093;-70
2022/12/02 02:08:59;;;;;;;1.70;1.60;;;;;;;1.30;77.42;100175.34;4994366;28;20046;-70
2022/12/02 02:11:28;;;;;;;4.05;3.58;;;;;;;1.29;77.12;100178.66;4965725;28;20053;-70
2022/12/02 02:14:03;;;;;;;1.13;1.02;;;;;;;1.26;77.13;100178.53;5008592;28;20054;-70
2022/12/02 02:16:33;;;;;;;5.10;3.88;;;;;;;1.23;77.11;100178.38;4993115;28;20137;-71
2022/12/02 02:19:02;;;;;;;1.75;1.65;;;;;;;1.26;77.78;100178.53;5011290;28;20061;-70
2022/12/02 02:21:36;;;;;;;2.42;2.28;;;;;;;1.18;76.89;100164.75;5014825;28;20073;-70
2022/12/02 02:24:07;;;;;;;3.13;1.73;;;;;;;1.28;76.96;100181.97;4996275;28;20064;-70
2022/12/02 02:26:37;;;;;;;3.15;2.63;;;;;;;1.28;77.52;100184.47;5011908;28;20523;-71
2022/12/02 02:29:06;;;;;;;0.77;0.77;;;;;;;1.24;77.37;100179.25;4996006;28;20042;-70
2022/12/02 02:31:35;;;;;;;2.05;1.75;;;;;;;1.24;77.44;100180.13;4994683;28;20129;-70
2022/12/02 02:34:04;;;;;;;2.03;1.90;;;;;;;1.26;76.97;100186.06;5012902;28;20518;-69
2022/12/02 02:36:33;;;;;;;2.37;2.17;;;;;;;1.26;76.81;100183.56;5014851;28;20787;-70
2022/12/02 02:39:04;;;;;;;3.15;2.85;;;;;;;1.23;76.64;100183.41;4976946;28;20272;-71
2022/12/02 02:41:36;;;;;;;3.30;3.05;;;;;;;1.20;76.89;100183.25;4995826;28;20403;-70
2022/12/02 02:44:05;;;;;;;4.13;2.15;;;;;;;1.17;77.68;100183.16;4996868;28;20044;-70
2022/12/02 02:46:34;;;;;;;5.70;4.00;;;;;;;1.13;77.45;100177.91;4987158;28;20042;-72
2022/12/02 02:49:04;;;;;;;3.63;1.65;;;;;;;1.11;77.01;100172.81;4991514;28;20048;-70
2022/12/02 02:51:33;;;;;;;2.50;2.30;;;;;;;1.11;76.75;100182.88;4996485;28;20072;-70
2022/12/02 02:54:02;;;;;;;3.85;3.55;;;;;;;1.08;77.14;100181.88;4994177;28;20092;-70
2022/12/02 02:56:30;;;;;;;1.30;1.23;;;;;;;1.05;77.63;100181.75;4995189;28;20492;-70
2022/12/02 02:59:01;;;;;;;1.10;1.05;;;;;;;1.03;77.74;100179.13;4996238;28;20048;-72
2022/12/02 03:01:34;;;;;;;4.10;2.78;;;;;;;1.01;77.60;100175.69;4987978;28;20038;-70
2022/12/02 03:04:08;;;;;;;8.68;3.33;;;;;;;1.00;77.41;100179.03;5009555;28;20526;-71
2022/12/02 03:06:41;;;;;;;16.27;2.25;;;;;;;0.98;76.87;100175.59;4977163;28;20396;-70
2022/12/02 03:09:12;;;;;;;1.35;1.25;;;;;;;0.96;77.44;100181.34;5000765;28;20046;-70
2022/12/02 03:11:43;;;;;;;2.55;1.88;;;;;;;0.91;77.62;100183.63;5013134;28;20361;-70
2022/12/02 03:14:16;;;;;;;2.80;2.60;;;;;;;0.92;77.07;100189.50;5011400;28;20052;-70
2022/12/02 03:16:45;;;;;;;2.95;2.72;;;;;;;0.90;77.58;100181.91;5009072;28;20096;-71
2022/12/02 03:19:15;;;;;;;2.13;2.03;;;;;;;0.91;77.63;100182.78;5012336;28;20046;-71
2022/12/02 03:21:44;;;;;;;3.65;3.35;;;;;;;0.91;77.86;100187.81;5013806;28;20124;-71
2022/12/02 03:24:12;;;;;;;5.53;1.77;;;;;;;0.91;77.65;100173.56;5012049;28;20048;-70
2022/12/02 03:26:42;;;;;;;1.60;1.50;;;;;;;0.94;77.63;100181.25;5012905;28;20138;-70
2022/12/02 03:29:13;;;;;;;3.60;3.30;;;;;;;0.94;77.14;100170.34;5013936;28;20073;-70
2022/12/02 03:31:44;;;;;;;0.93;0.93;;;;;;;0.91;77.49;100171.06;5011617;28;20120;-69
2022/12/02 03:34:14;;;;;;;2.72;2.50;;;;;;;0.88;77.50;100170.94;5011650;28;20543;-70
2022/12/02 03:36:43;;;;;;;2.42;2.15;;;;;;;0.86;78.00;100165.00;5016352;28;20407;-70
2022/12/02 03:39:11;;;;;;;0.93;0.93;;;;;;;0.85;77.93;100173.31;5016246;28;20038;-72
2022/12/02 03:41:40;;;;;;;3.63;3.03;;;;;;;0.82;77.76;100173.16;5017491;28;20084;-69
2022/12/02 03:44:09;;;;;;;3.70;3.40;;;;;;;0.80;77.52;100164.69;5016606;28;20038;-70
2022/12/02 03:46:39;;;;;;;4.72;3.15;;;;;;;0.82;78.19;100172.28;4998445;28;20455;-69
2022/12/02 03:49:09;;;;;;;4.40;3.47;;;;;;;0.81;77.45;100166.44;5016117;28;20070;-70
2022/12/02 03:51:38;;;;;;;;;;;;;;;0.83;77.73;100163.97;5015409;28;20046;-69
2022/12/02 03:54:06;;;;;;;1.30;1.20;;;;;;;0.80;77.58;100169.72;5016101;28;19921;-70
2022/12/02 03:56:38;;;;;;;1.30;1.23;;;;;;;0.76;77.73;100157.81;5015205;28;20088;-70
2022/12/02 03:59:07;;;;;;;4.68;3.00;;;;;;;0.76;77.61;100162.84;5017162;28;20057;-70
2022/12/02 04:01:36;;;;;;;2.45;2.25;;;;;;;0.76;77.87;100162.84;5015180;28;20480;-70
2022/12/02 04:04:06;;;;;;;2.65;2.45;;;;;;;0.70;77.86;100167.56;5015948;28;20065;-70
2022/12/02 04:06:35;;;;;;;2.28;2.17;;;;;;;0.64;78.25;100170.69;5015593;28;20435;-70
2022/12/02 04:09:03;;;;;;;0.98;0.98;;;;;;;0.64;77.99;100168.16;5017001;28;20038;-70
2022/12/02 04:11:32;;;;;;;1.35;1.25;;;;;;;0.66;78.28;100166.59;5015828;28;20046;-70
2022/12/02 04:14:01;;;;;;;5.88;2.83;;;;;;;0.64;78.41;100172.31;5015839;28;20042;-69
2022/12/02 04:16:30;;;;;;;1.87;1.73;;;;;;;0.64;78.05;100177.34;5013680;28;20034;-70
2022/12/02 04:18:58;;;;;;;0.97;0.97;;;;;;;0.56;78.40;100173.63;4998732;28;20076;-72
2022/12/02 04:21:29;;;;;;;2.97;2.08;;;;;;;0.46;78.40;100177.34;5012717;28;20420;-70
2022/12/02 04:23:58;;;;;;;3.72;2.85;;;;;;;0.35;78.33;100177.63;4969344;28;20049;-70
2022/12/02 04:26:27;;;;;;;5.38;1.80;;;;;;;0.22;78.21;100171.16;4979894;28;20060;-70
2022/12/02 04:28:56;;;;;;;2.15;2.03;;;;;;;0.28;78.52;100173.13;4997314;28;20042;-70
2022/12/02 04:31:25;;;;;;;3.40;2.33;;;;;;;0.33;78.50;100175.06;5008700;28;20049;-70
2022/12/02 04:33:54;;;;;;;2.05;1.95;;;;;;;0.34;78.86;100176.75;5015604;28;20134;-70
2022/12/02 04:36:23;;;;;;;4.15;3.78;;;;;;;0.37;79.03;100181.06;5012640;28;20559;-69
2022/12/02 04:38:53;;;;;;;1.75;1.65;;;;;;;0.31;78.47;100184.13;5013869;28;20045;-69
2022/12/02 04:41:22;;;;;;;7.85;4.40;;;;;;;0.31;78.75;100185.81;4965965;28;20050;-70
2022/12/02 04:43:51;;;;;;;2.22;2.03;;;;;;;0.28;78.77;100180.63;4999039;28;20488;-69
2022/12/02 04:46:20;;;;;;;3.63;3.33;;;;;;;0.28;78.93;100183.16;5014164;28;20065;-70
2022/12/02 04:48:48;;;;;;;3.13;2.92;;;;;;;0.23;78.83;100172.91;5014474;28;20107;-70
2022/12/02 04:51:17;;;;;;;7.80;5.87;;;;;;;0.25;78.87;100185.50;5014222;28;20037;-71
2022/12/02 04:53:46;;;;;;;7.20;5.50;;;;;;;0.27;78.58;100178.91;5015283;28;20128;-71
2022/12/02 04:56:16;;;;;;;4.20;3.80;;;;;;;0.30;79.03;100184.94;4995252;28;20042;-70
2022/12/02 04:58:45;;;;;;;4.43;4.13;;;;;;;0.29;79.16;100184.88;4996428;28;20054;-70
2022/12/02 05:01:13;;;;;;;2.35;2.15;;;;;;;0.28;78.86;100185.66;5005290;28;20042;-69
2022/12/02 05:03:43;;;;;;;;;;;;;;;0.30;79.12;100181.56;5015322;28;20137;-70
2022/12/02 05:06:11;;;;;;;4.15;3.75;;;;;;;0.20;78.80;100177.75;5015856;28;19921;-70
2022/12/02 05:08:41;;;;;;;3.53;3.22;;;;;;;0.26;79.06;100190.63;5016122;28;20523;-70
2022/12/02 05:11:10;;;;;;;3.43;3.10;;;;;;;0.20;78.84;100176.88;5013646;28;20042;-70
2022/12/02 05:13:40;;;;;;;5.32;4.88;;;;;;;0.28;79.04;100196.56;5014341;28;20130;-70
2022/12/02 05:16:09;;;;;;;4.70;4.30;;;;;;;0.28;79.11;100191.53;4996785;28;20046;-69
2022/12/02 05:18:38;;;;;;;10.63;6.28;;;;;;;0.25;79.00;100193.03;4981166;28;20069;-71
2022/12/02 05:21:07;;;;;;;9.23;7.63;;;;;;;0.29;78.77;100199.94;5015184;28;20418;-69
2022/12/02 05:23:36;;;;;;;8.17;6.83;;;;;;;0.24;78.94;100194.69;5015523;28;20045;-70
2022/12/02 05:26:05;;;;;;;16.05;7.20;;;;;;;0.26;79.19;100197.28;5012920;28;20522;-69
2022/12/02 05:28:33;;;;;;;6.10;4.32;;;;;;;0.26;78.83;100184.72;4997989;28;20038;-69
2022/12/02 05:31:03;;;;;;;4.07;3.20;;;;;;;0.24;79.12;100193.84;5013471;28;20399;-70
2022/12/02 05:33:32;;;;;;;3.22;2.33;;;;;;;0.18;78.96;100198.53;5013850;28;20046;-70
2022/12/02 05:36:01;;;;;;;9.10;6.18;;;;;;;0.15;79.09;100204.28;5015659;28;20496;-70
2022/12/02 05:38:30;;;;;;;11.45;7.20;;;;;;;0.17;79.45;100201.88;5015323;28;20069;-70
2022/12/02 05:40:58;;;;;;;4.72;4.32;;;;;;;0.17;79.35;100197.69;5013169;28;20050;-69
2022/12/02 05:43:27;;;;;;;2.75;2.55;;;;;;;0.17;79.02;100191.81;4997974;28;20504;-71
2022/12/02 05:45:59;;;;;;;2.47;2.28;;;;;;;0.23;78.97;100192.09;5011614;28;20046;-70
2022/12/02 05:48:34;;;;;;;2.90;2.70;;;;;;;0.24;79.01;100199.69;5014236;28;20073;-70
2022/12/02 05:51:10;;;;;;;6.70;5.90;;;;;;;0.23;78.88;100199.63;5014378;28;20060;-70
2022/12/02 05:53:40;;;;;;;16.02;13.40;;;;;;;0.21;79.20;100194.56;5013924;28;20104;-69
2022/12/02 05:56:13;;;;;;;9.88;8.77;;;;;;;0.18;78.91;100196.91;5014338;28;20116;-71
2022/12/02 05:58:43;;;;;;;7.68;6.97;;;;;;;0.21;79.09;100203.72;5014729;28;20038;-70
2022/12/02 06:01:23;;;;;;;5.32;4.47;;;;;;;0.23;78.77;100198.00;4995256;28;20037;-70
2022/12/02 06:03:55;;;;;;;1.80;1.70;;;;;;;0.22;79.30;100200.41;5013102;28;20054;-70
2022/12/02 06:06:28;;;;;;;2.35;2.20;;;;;;;0.18;78.98;100204.44;5013835;28;20070;-69
2022/12/02 06:08:57;;;;;;;3.95;3.65;;;;;;;0.17;78.67;100200.19;5013888;28;20534;-70
2022/12/02 06:11:29;;;;;;;2.10;2.00;;;;;;;0.21;79.61;100204.59;5013773;28;20126;-70
2022/12/02 06:14:00;;;;;;;6.43;4.28;;;;;;;0.22;79.28;100206.28;5012782;28;20557;-69
2022/12/02 06:16:31;;;;;;;3.00;2.80;;;;;;;0.27;79.01;100204.00;5011544;28;20385;-71
2022/12/02 06:19:03;;;;;;;0.45;0.45;;;;;;;0.24;79.48;100199.69;5012838;28;20103;-70
2022/12/02 06:21:32;;;;;;;3.05;2.67;;;;;;;0.27;79.06;100216.56;5014016;28;20050;-70
2022/12/02 06:24:02;;;;;;;5.22;4.45;;;;;;;0.27;79.28;100214.91;5013578;28;20041;-70
2022/12/02 06:26:31;;;;;;;3.35;2.65;;;;;;;0.26;79.06;100213.19;5012449;28;20042;-70
2022/12/02 06:29:04;;;;;;;1.77;1.67;;;;;;;0.28;79.62;100215.78;5014580;28;20033;-70
2022/12/02 06:31:37;;;;;;;3.25;2.90;;;;;;;0.34;79.12;100218.56;5012319;28;20076;-70
2022/12/02 06:34:23;;;;;;;3.83;3.50;;;;;;;0.36;78.98;100220.38;4995298;28;20073;-71
2022/12/02 06:36:53;;;;;;;5.32;4.82;;;;;;;0.40;78.86;100216.38;5014843;28;20411;-70
2022/12/02 06:39:23;;;;;;;8.68;4.50;;;;;;;0.22;79.45;100191.25;5012935;28;20042;-70
2022/12/02 06:41:54;;;;;;;3.85;3.50;;;;;;;0.46;79.46;100226.69;5012899;28;20133;-71
2022/12/02 06:47:37;;;;;;;6.65;5.40;;;;;;;0.51;79.00;100226.13;5010424;28;20074;-70
2022/12/02 06:50:27;;;;;;;6.80;5.38;;;;;;;0.56;79.34;100233.88;5013233;28;20048;-71
2022/12/02 06:53:01;;;;;;;;;;;;;;;0.62;79.53;100234.19;5008970;28;20049;-70
2022/12/02 06:55:35;;;;;;;2.47;1.88;;;;;;;0.65;78.92;100236.81;5005015;28;19928;-71
2022/12/02 06:58:27;;;;;;;5.93;3.55;;;;;;;0.65;78.94;100240.19;4977994;28;20081;-69
2022/12/02 07:01:14;;;;;;;3.00;2.78;;;;;;;0.64;79.40;100237.63;4993128;28;20487;-70
2022/12/02 07:03:47;;;;;;;2.78;2.55;;;;;;;0.69;79.45;100241.22;5007513;28;20137;-70
2022/12/02 07:06:20;;;;;;;2.03;1.83;;;;;;;0.69;78.96;100246.22;4995588;28;20046;-70
2022/12/02 07:08:49;;;;;;;3.22;2.97;;;;;;;0.67;79.25;100241.13;5013753;28;20104;-70
2022/12/02 07:14:22;;;;;;;5.57;3.88;;;;;;;0.65;79.29;100246.84;5000884;28;20049;-73
2022/12/02 07:16:56;;;;;;;5.32;4.47;;;;;;;0.67;79.76;100248.66;5005086;28;20050;-72
2022/12/02 07:19:38;;;;;;;1.42;1.38;;;;;;;0.73;79.53;100248.09;5013950;28;20119;-71
2022/12/02 07:22:19;;;;;;;4.47;3.00;;;;;;;0.71;79.24;100252.19;4996519;28;20049;-71
2022/12/02 07:24:55;;;;;;;2.60;2.40;;;;;;;0.79;79.76;100243.38;5011996;28;20504;-71
2022/12/02 07:27:26;;;;;;;5.35;2.85;;;;;;;0.78;79.68;100226.56;5010467;28;20117;-68
2022/12/02 07:29:56;;;;;;;2.30;2.10;;;;;;;1.00;79.24;100259.44;5010625;28;20065;-71
2022/12/02 07:32:25;;;;;;;3.00;2.70;;;;;;;1.02;79.26;100257.84;5012433;28;20061;-69
2022/12/02 07:34:53;;;;;;;4.47;3.22;;;;;;;1.00;79.67;100259.44;5013309;28;20054;-70
2022/12/02 07:37:24;;;;;;;2.47;2.28;;;;;;;1.06;79.44;100268.88;5013678;28;20496;-69
2022/12/02 07:39:52;;;;;;;2.42;2.22;;;;;;;1.13;79.95;100266.72;5013489;28;20120;-70
2022/12/02 07:42:21;;;;;;;4.88;4.35;;;;;;;1.19;79.85;100266.16;5011948;28;20065;-70
2022/12/02 07:44:50;;;;;;;6.50;4.93;;;;;;;1.20;79.30;100263.69;5013511;28;20038;-70
2022/12/02 07:47:19;;;;;;;3.45;2.17;;;;;;;1.32;79.20;100273.44;5013172;28;20053;-70
2022/12/02 07:49:47;;;;;;;6.25;5.65;;;;;;;1.37;78.98;100266.97;5013370;28;20050;-70
2022/12/02 07:52:16;;;;;;;3.90;2.90;;;;;;;1.34;78.99;100264.34;5013342;28;20046;-70
2022/12/02 07:54:46;;;;;;;6.05;3.95;;;;;;;1.37;78.86;100271.16;5013408;28;20049;-70
2022/12/02 07:57:14;;;;;;;4.90;1.98;;;;;;;1.38;79.07;100280.41;5013986;28;20136;-70
2022/12/02 07:59:43;;;;;;;2.53;2.33;;;;;;;1.41;79.29;100270.50;5011768;28;20124;-71
2022/12/02 08:02:11;;;;;;;2.85;2.63;;;;;;;1.39;78.48;100269.59;5008152;28;20035;-70
2022/12/02 08:04:40;;;;;;;1.55;1.45;;;;;;;1.35;78.97;100266.91;4976580;28;20085;-70
2022/12/02 08:07:09;;;;;;;2.38;2.17;;;;;;;1.37;78.91;100253.56;4993697;28;20125;-70
2022/12/02 08:09:38;;;;;;;2.53;2.35;;;;;;;1.48;79.14;100257.41;4978602;28;20046;-71
2022/12/02 08:12:08;;;;;;;2.53;2.33;;;;;;;1.47;78.47;100240.59;5004756;28;20077;-71
2022/12/02 08:14:36;;;;;;;3.20;2.60;;;;;;;1.59;78.34;100258.72;5013891;28;20443;-70
2022/12/02 08:17:05;;;;;;;2.75;1.73;;;;;;;1.62;78.92;100253.84;5013109;28;20050;-71
2022/12/02 08:19:33;;;;;;;7.03;3.63;;;;;;;1.60;78.12;100252.91;5013140;28;20104;-71
2022/12/02 08:22:02;;;;;;;2.67;2.47;;;;;;;1.61;78.66;100262.19;5014375;28;20069;-71
2022/12/02 08:24:31;;;;;;;3.97;2.88;;;;;;;1.59;78.37;100258.72;5016936;28;20034;-71
2022/12/02 08:26:59;;;;;;;5.00;3.50;;;;;;;1.60;78.94;100255.44;5016662;28;20038;-71
2022/12/02 08:29:29;;;;;;;2.92;2.65;;;;;;;1.64;78.14;100257.28;5016586;28;20049;-70
2022/12/02 08:31:58;;;;;;;2.45;2.03;;;;;;;1.66;78.89;100258.19;5016847;28;20064;-70
2022/12/02 08:34:27;;;;;;;2.13;2.03;;;;;;;1.65;78.88;100256.50;5016315;28;20038;-71
2022/12/02 08:36:56;;;;;;;3.88;3.58;;;;;;;1.66;77.90;100263.22;5016104;28;20057;-70
2022/12/02 08:39:24;;;;;;;4.22;2.92;;;;;;;1.68;78.46;100266.69;5016343;28;20404;-71
2022/12/02 08:41:53;;;;;;;3.63;2.75;;;;;;;1.67;78.44;100267.47;5011256;28;20081;-71
2022/12/02 08:44:22;;;;;;;2.63;2.45;;;;;;;1.68;78.57;100264.19;5011322;28;20407;-72
2022/12/02 08:46:52;;;;;;;5.32;2.30;;;;;;;1.69;78.39;100266.75;5005383;28;20039;-71
2022/12/02 08:49:23;;;;;;;2.20;2.03;;;;;;;1.71;78.76;100265.16;4996605;28;20042;-71
2022/12/02 08:51:51;;;;;;;2.70;2.47;;;;;;;1.77;79.18;100265.44;4996694;28;20485;-70
2022/12/02 08:54:21;;;;;;;4.57;3.85;;;;;;;1.72;78.82;100258.47;4996784;28;20070;-71
2022/12/02 08:56:49;;;;;;;4.72;2.95;;;;;;;1.79;78.67;100265.50;4996874;28;20034;-71
2022/12/02 08:59:19;;;;;;;2.80;2.58;;;;;;;1.71;79.03;100255.09;4996754;28;20046;-71
2022/12/02 09:01:47;;;;;;;11.32;4.85;;;;;;;1.81;78.97;100266.44;5005117;28;20062;-70
2022/12/02 09:04:17;;;;;;;3.05;2.67;;;;;;;1.83;78.33;100260.66;5016055;28;20458;-71
2022/12/02 09:06:46;;;;;;;4.50;4.10;;;;;;;1.91;78.58;100266.03;5016104;28;20042;-71
2022/12/02 09:09:16;;;;;;;1.65;1.55;;;;;;;1.95;78.43;100270.38;5016149;28;20542;-70
2022/12/02 09:11:45;;;;;;;2.42;2.22;;;;;;;1.92;78.11;100245.13;5011143;28;20069;-71
2022/12/02 09:14:13;;;;;;;3.63;3.33;;;;;;;2.01;78.42;100255.56;5011453;28;20054;-71
2022/12/02 09:16:42;;;;;;;5.72;4.47;;;;;;;1.94;78.85;100248.56;5015629;28;20037;-71
2022/12/02 09:19:11;;;;;;;3.45;2.67;;;;;;;1.98;78.19;100256.28;5015604;28;20041;-70
2022/12/02 09:21:41;;;;;;;3.90;3.55;;;;;;;2.02;77.68;100248.06;5015919;28;20096;-72
2022/12/02 09:24:10;;;;;;;3.80;3.28;;;;;;;2.07;77.85;100250.78;5015838;28;20061;-71
2022/12/02 09:26:38;;;;;;;1.60;1.50;;;;;;;2.09;77.78;100250.84;4998298;28;20068;-71
2022/12/02 09:29:07;;;;;;;1.33;1.20;;;;;;;2.14;77.16;100252.75;5015713;28;20050;-71
2022/12/02 09:31:36;;;;;;;6.88;4.80;;;;;;;2.18;77.62;100252.09;5015474;28;20046;-70
2022/12/02 09:34:05;;;;;;;2.58;2.20;;;;;;;2.25;77.17;100251.56;5014921;28;20049;-71
2022/12/02 09:36:33;;;;;;;4.88;4.32;;;;;;;2.26;77.01;100253.25;5015350;28;20045;-70
2022/12/02 09:39:04;;;;;;;1.87;1.77;;;;;;;2.29;77.39;100253.38;5015632;28;20037;-71
2022/12/02 09:41:33;;;;;;;4.53;4.10;;;;;;;2.31;77.01;100250.91;5013951;28;20295;-71
2022/12/02 09:44:01;;;;;;;2.43;2.27;;;;;;;2.34;76.73;100251.91;5003638;28;20049;-71
2022/12/02 09:46:31;;;;;;;7.78;4.57;;;;;;;2.37;76.81;100249.53;4982554;28;20093;-71
2022/12/02 09:48:59;;;;;;;;;;;;;;;2.40;76.63;100252.16;5001943;28;20396;-72
2022/12/02 09:51:29;;;;;;;4.13;3.60;;;;;;;2.46;77.18;100249.03;5000193;28;19929;-73
2022/12/02 09:53:58;;;;;;;4.82;4.20;;;;;;;2.55;76.66;100246.88;5000250;28;20045;-71
2022/12/02 09:56:29;;;;;;;9.65;5.32;;;;;;;2.55;76.55;100252.78;5010510;28;20443;-70
2022/12/02 09:58:58;;;;;;;1.95;1.85;;;;;;;2.59;76.49;100248.75;5013615;28;20484;-71
2022/12/02 10:01:27;;;;;;;2.83;2.50;;;;;;;2.60;76.22;100250.44;4994902;28;20496;-71
2022/12/02 10:03:56;;;;;;;1.77;1.52;;;;;;;2.59;76.47;100244.53;4995533;28;20088;-71
2022/12/02 10:06:26;;;;;;;3.88;3.58;;;;;;;2.52;76.14;100236.69;4977860;28;20431;-71
2022/12/02 10:08:57;;;;;;;4.43;4.00;;;;;;;2.60;76.07;100240.38;4995494;28;20035;-71
2022/12/02 10:11:31;;;;;;;7.80;3.75;;;;;;;2.64;76.31;100243.06;5002801;28;20050;-71
2022/12/02 10:14:01;;;;;;;6.13;4.47;;;;;;;2.50;76.44;100198.84;5005648;28;20034;-71
2022/12/02 10:16:29;;;;;;;2.35;2.15;;;;;;;2.76;76.08;100236.81;5004701;28;20444;-71
2022/12/02 10:19:01;;;;;;;3.65;3.33;;;;;;;2.59;76.62;100201.72;5006598;28;20077;-71
2022/12/02 10:21:31;;;;;;;3.70;3.40;;;;;;;2.85;76.11;100237.16;5013619;28;20062;-71
2022/12/02 10:24:01;;;;;;;2.33;2.17;;;;;;;2.89;76.61;100238.97;5014817;28;20042;-71
2022/12/02 10:26:48;;;;;;;3.33;2.35;;;;;;;2.96;76.41;100238.41;5014737;28;20045;-72
2022/12/02 10:29:19;;;;;;;7.50;4.25;;;;;;;2.95;75.70;100234.19;5012905;28;20567;-72
2022/12/02 10:31:57;;;;;;;8.88;3.15;;;;;;;2.96;75.55;100233.38;4998391;28;20054;-71
2022/12/02 10:34:26;;;;;;;6.72;4.47;;;;;;;2.94;76.41;100230.81;5014145;28;20046;-71
2022/12/02 10:36:56;;;;;;;2.40;1.98;;;;;;;2.60;75.55;100173.22;5011465;28;20050;-71
2022/12/02 10:39:28;;;;;;;3.58;3.35;;;;;;;2.91;75.63;100217.22;4994598;28;20046;-71
2022/12/02 10:42:20;;;;;;;7.85;4.03;;;;;;;3.02;75.94;100234.50;4994910;28;20046;-70
2022/12/02 10:45:11;;;;;;;4.80;4.35;;;;;;;3.02;75.25;100221.88;4994471;28;20097;-71
2022/12/02 10:47:39;;;;;;;1.85;1.75;;;;;;;3.13;75.49;100229.84;4994669;28;20112;-71
2022/12/02 10:50:16;;;;;;;5.78;3.50;;;;;;;3.16;75.12;100225.78;4977163;28;20133;-71
2022/12/02 10:52:48;;;;;;;2.03;1.92;;;;;;;2.99;74.96;100188.13;5009046;28;20049;-71
2022/12/02 10:55:18;;;;;;;4.40;3.58;;;;;;;3.23;74.83;100229.38;4996547;28;20073;-71
2022/12/02 10:57:49;;;;;;;1.73;1.63;;;;;;;3.24;75.28;100226.91;5014345;28;20046;-71
2022/12/02 11:00:20;;;;;;;4.28;3.38;;;;;;;3.25;75.19;100225.25;5014221;28;20071;-71
2022/12/02 11:02:52;;;;;;;4.13;3.75;;;;;;;3.26;75.24;100216.88;5014202;28;20054;-71
2022/12/02 11:05:22;;;;;;;4.18;2.35;;;;;;;3.30;74.53;100223.75;5014203;28;20455;-71
2022/12/02 11:07:58;;;;;;;2.63;2.38;;;;;;;3.32;74.87;100222.13;5013769;28;20050;-71
2022/12/02 11:10:33;;;;;;;6.20;3.90;;;;;;;3.34;74.43;100215.50;5012975;28;20049;-71
2022/12/02 11:13:46;;;;;;;13.98;5.82;;;;;;;3.37;75.23;100221.53;5005823;28;20057;-71
2022/12/02 11:16:40;;;;;;;2.97;2.70;;;;;;;3.37;75.06;100218.13;4999646;28;20049;-72
2022/12/02 11:19:45;;;;;;;2.67;2.47;;;;;;;3.42;75.05;100219.16;5001126;28;20041;-71
2022/12/02 11:22:35;;;;;;;6.40;3.92;;;;;;;3.50;75.21;100209.34;4999996;28;20042;-71
2022/12/02 11:25:04;;;;;;;6.63;4.25;;;;;;;3.48;74.93;100208.44;5013865;28;20049;-70
2022/12/02 11:27:33;;;;;;;8.47;4.33;;;;;;;3.57;75.11;100214.66;5013419;28;20042;-70
2022/12/02 11:30:23;;;;;;;2.30;2.10;;;;;;;3.61;74.79;100201.34;5011324;28;20096;-72
2022/12/02 11:32:53;;;;;;;3.83;3.53;;;;;;;3.59;74.46;100197.03;5007291;28;20042;-71
2022/12/02 11:35:52;;;;;;;3.22;2.92;;;;;;;3.60;74.25;100199.59;5013488;28;20046;-71
2022/12/02 11:38:25;;;;;;;;;;;;;;;3.69;74.44;100204.13;5013892;28;20053;-71
2022/12/02 11:41:02;;;;;;;8.68;4.80;;;;;;;3.68;74.48;100198.22;5013649;28;19922;-71
2022/12/02 11:43:52;;;;;;;3.28;2.28;;;;;;;3.70;74.23;100201.66;4997432;28;20489;-71
2022/12/02 11:46:23;;;;;;;3.63;3.30;;;;;;;3.71;74.02;100198.34;4993858;28;20061;-72
2022/12/02 11:48:55;;;;;;;4.90;2.10;;;;;;;3.72;74.35;100192.47;4994100;28;20050;-71
2022/12/02 11:51:35;;;;;;;2.28;1.73;;;;;;;3.75;73.72;100190.06;4993825;28;20067;-71
2022/12/02 11:54:09;;;;;;;3.75;3.45;;;;;;;3.78;73.83;100195.22;4993749;28;20061;-71
2022/12/02 11:56:41;;;;;;;8.45;4.15;;;;;;;3.80;74.05;100187.69;4994489;28;20046;-71
2022/12/02 11:59:20;;;;;;;4.15;3.80;;;;;;;3.87;74.38;100190.47;4980426;28;20201;-72
2022/12/02 12:01:49;;;;;;;5.53;3.40;;;;;;;3.86;74.60;100188.75;4997909;28;20058;-72